createdAt,value
2019-03-24T00:02:00.074Z,70.66
2019-03-24T00:04:28.603Z,71.16
2019-03-24T00:06:57.069Z,71.93
2019-03-24T00:09:25.547Z,71.11
2019-03-24T00:11:54.004Z,71.24
2019-03-24T00:14:22.459Z,71.38
2019-03-24T00:16:51.016Z,71.53
2019-03-24T00:19:19.522Z,71.96
2019-03-24T00:21:48.256Z,71.69
2019-03-24T00:24:16.681Z,72.54
2019-03-24T00:26:45.102Z,72.46
2019-03-24T00:29:13.575Z,72.10
2019-03-24T00:31:41.994Z,72.06
2019-03-24T00:34:10.449Z,72.16
2019-03-24T00:36:38.929Z,72.73
2019-03-24T00:39:07.719Z,72.82
2019-03-24T00:41:36.151Z,72.39
2019-03-24T00:44:04.721Z,72.35
2019-03-24T00:46:33.255Z,72.40
2019-03-24T00:49:01.685Z,72.08
2019-03-24T00:51:30.195Z,72.80
2019-03-24T00:53:58.626Z,72.71
2019-03-24T00:56:27.148Z,74.32
2019-03-24T00:58:55.999Z,73.98
2019-03-24T01:01:24.512Z,74.08
2019-03-24T01:03:52.931Z,73.90
2019-03-24T01:06:21.702Z,72.87
2019-03-24T01:08:50.316Z,72.53
2019-03-24T01:11:18.840Z,73.37
2019-03-24T01:13:48.303Z,73.83
2019-03-24T01:16:16.759Z,73.10
2019-03-24T01:18:45.252Z,74.23
2019-03-24T01:21:13.794Z,74.05
2019-03-24T01:23:42.289Z,74.84
2019-03-24T01:26:10.720Z,75.57
2019-03-24T01:28:39.176Z,75.58
2019-03-24T01:31:07.667Z,76.19
2019-03-24T01:33:36.121Z,76.46
2019-03-24T01:36:04.625Z,76.34
2019-03-24T01:38:33.051Z,75.41
2019-03-24T01:41:01.565Z,75.90
2019-03-24T01:43:30.220Z,75.92
2019-03-24T01:45:59.048Z,76.51
2019-03-24T01:48:27.571Z,76.39
2019-03-24T01:50:56.060Z,75.49
2019-03-24T01:53:24.538Z,75.64
2019-03-24T01:55:53.195Z,75.70
2019-03-24T01:58:21.620Z,75.09
2019-03-24T02:00:50.388Z,74.76
2019-03-24T02:03:18.860Z,74.28
2019-03-24T02:05:47.283Z,74.41
2019-03-24T02:08:15.750Z,74.83
2019-03-24T02:10:44.244Z,75.49
2019-03-24T02:13:12.706Z,77.21
2019-03-24T02:15:41.191Z,77.38
2019-03-24T02:18:09.853Z,77.86
2019-03-24T02:20:38.317Z,77.04
2019-03-24T02:23:06.791Z,76.96
2019-03-24T02:25:35.239Z,76.18
2019-03-24T02:28:03.793Z,75.86
2019-03-24T02:30:32.321Z,75.41
2019-03-24T02:33:00.835Z,75.34
2019-03-24T02:35:29.256Z,75.22
2019-03-24T02:37:57.945Z,76.29
2019-03-24T02:40:26.375Z,76.06
2019-03-24T02:42:54.821Z,75.36
2019-03-24T02:45:23.252Z,75.15
2019-03-24T02:47:51.762Z,75.08
2019-03-24T02:50:20.291Z,75.19
2019-03-24T02:52:48.780Z,75.28
2019-03-24T02:55:17.254Z,75.15
2019-03-24T02:57:45.764Z,75.30
2019-03-24T03:00:15.135Z,75.46
2019-03-24T03:02:43.574Z,77.52
2019-03-24T03:05:13.162Z,77.19
2019-03-24T03:07:41.654Z,76.58
2019-03-24T03:10:10.689Z,76.67
2019-03-24T03:12:39.284Z,78.21
2019-03-24T03:15:08.719Z,78.89
2019-03-24T03:17:37.281Z,77.66
2019-03-24T03:20:07.526Z,77.76
2019-03-24T03:22:36.009Z,78.95
2019-03-24T03:25:09.330Z,79.72
2019-03-24T03:27:37.756Z,78.93
2019-03-24T03:30:09.922Z,79.36
2019-03-24T03:32:38.480Z,78.63
2019-03-24T03:35:08.018Z,78.15
2019-03-24T03:37:36.697Z,77.81
2019-03-24T03:40:07.289Z,77.55
2019-03-24T03:42:36.258Z,78.57
2019-03-24T03:45:05.919Z,79.56
2019-03-24T03:47:34.374Z,79.69
2019-03-24T03:50:02.848Z,79.04
2019-03-24T03:52:31.300Z,78.72
2019-03-24T03:54:59.723Z,78.73
2019-03-24T03:57:28.237Z,79.92
2019-03-24T03:59:56.687Z,79.41
2019-03-24T04:02:25.186Z,79.04
2019-03-24T04:04:53.954Z,78.89
2019-03-24T04:07:22.390Z,78.83
2019-03-24T04:09:50.832Z,79.93
2019-03-24T04:12:19.495Z,79.60
2019-03-24T04:14:47.971Z,78.61
2019-03-24T04:17:16.433Z,78.46
2019-03-24T04:19:44.931Z,80.19
2019-03-24T04:22:13.341Z,79.49
2019-03-24T04:24:41.813Z,78.26
2019-03-24T04:27:10.234Z,79.92
2019-03-24T04:29:38.665Z,81.95
2019-03-24T04:32:07.180Z,82.64
2019-03-24T04:34:35.644Z,81.88
2019-03-24T04:37:04.071Z,81.43
2019-03-24T04:39:32.795Z,80.48
2019-03-24T04:42:01.219Z,80.80
2019-03-24T04:44:29.640Z,80.47
2019-03-24T04:46:58.101Z,80.09
2019-03-24T04:49:26.533Z,79.43
2019-03-24T04:51:54.985Z,79.30
2019-03-24T04:54:23.409Z,79.23
2019-03-24T04:56:51.875Z,81.45
2019-03-24T04:59:20.300Z,81.11
2019-03-24T05:01:48.788Z,79.81
2019-03-24T05:04:17.331Z,79.83
2019-03-24T05:06:45.896Z,79.96
2019-03-24T05:09:15.473Z,80.11
2019-03-24T05:11:43.949Z,79.62
2019-03-24T05:14:12.424Z,79.64
2019-03-24T05:16:40.849Z,79.43
2019-03-24T05:19:10.969Z,79.42
2019-03-24T05:21:39.405Z,79.18
2019-03-24T05:24:07.842Z,80.14
2019-03-24T05:26:36.285Z,79.51
2019-03-24T05:29:04.877Z,80.11
2019-03-24T05:31:33.326Z,80.56
2019-03-24T05:34:01.821Z,80.44
2019-03-24T05:36:30.274Z,80.95
2019-03-24T05:38:58.697Z,81.59
2019-03-24T05:41:27.187Z,81.83
2019-03-24T05:43:55.713Z,83.28
2019-03-24T05:46:24.147Z,83.04
2019-03-24T05:48:52.580Z,83.56
2019-03-24T05:51:21.044Z,83.66
2019-03-24T05:53:49.462Z,83.34
2019-03-24T05:56:17.942Z,82.19
2019-03-24T05:58:46.464Z,81.17
2019-03-24T06:01:14.887Z,79.92
2019-03-24T06:03:43.427Z,80.30
2019-03-24T06:06:11.890Z,80.62
2019-03-24T06:08:40.330Z,79.87
2019-03-24T06:11:08.765Z,78.47
2019-03-24T06:13:37.271Z,77.21
2019-03-24T06:16:05.870Z,75.77
2019-03-24T06:18:34.315Z,74.61
2019-03-24T06:21:02.760Z,73.70
2019-03-24T06:23:31.184Z,73.15
2019-03-24T06:25:59.663Z,71.84
2019-03-24T06:28:28.089Z,69.83
2019-03-24T06:30:56.528Z,70.13
2019-03-24T06:33:25.047Z,69.20
2019-03-24T06:35:53.513Z,68.05
2019-03-24T06:38:22.010Z,67.64
2019-03-24T06:40:50.495Z,67.45
2019-03-24T06:43:19.081Z,66.30
2019-03-24T06:45:47.571Z,64.81
2019-03-24T06:48:16.018Z,64.75
2019-03-24T06:50:44.473Z,65.11
2019-03-24T06:53:12.909Z,64.05
2019-03-24T06:55:41.500Z,63.17
2019-03-24T06:58:09.998Z,62.51
2019-03-24T07:00:38.521Z,61.71
2019-03-24T07:03:07.044Z,61.02
2019-03-24T07:05:35.557Z,61.19
2019-03-24T07:08:04.100Z,61.35
2019-03-24T07:10:32.530Z,62.66
2019-03-24T07:13:01.029Z,64.18
2019-03-24T07:15:30.013Z,63.85
2019-03-24T07:18:08.187Z,62.65
2019-03-24T07:20:28.689Z,61.98
2019-03-24T07:22:57.197Z,61.50
2019-03-24T07:25:25.637Z,60.88
2019-03-24T07:27:56.746Z,60.09
2019-03-24T07:30:25.173Z,58.81
2019-03-24T07:32:53.630Z,57.68
2019-03-24T07:35:22.148Z,55.95
2019-03-24T07:37:50.604Z,55.29
2019-03-24T07:40:19.285Z,54.07
2019-03-24T07:42:47.824Z,53.01
2019-03-24T07:45:16.490Z,51.80
2019-03-24T07:47:44.947Z,50.41
2019-03-24T07:50:13.851Z,49.57
2019-03-24T07:52:42.276Z,47.71
2019-03-24T07:55:10.949Z,47.17
2019-03-24T07:57:39.497Z,46.90
2019-03-24T08:00:09.780Z,45.82
2019-03-24T08:02:38.267Z,44.14
2019-03-24T08:05:07.468Z,43.27
2019-03-24T08:07:36.002Z,41.53
2019-03-24T08:10:06.198Z,39.54
2019-03-24T08:12:34.707Z,39.58
2019-03-24T08:15:03.464Z,38.25
2019-03-24T08:17:31.908Z,37.53
2019-03-24T08:20:00.392Z,36.21
2019-03-24T08:22:28.933Z,35.36
2019-03-24T08:24:57.368Z,34.30
2019-03-24T08:27:25.817Z,33.21
2019-03-24T08:29:54.408Z,32.31
2019-03-24T08:32:22.901Z,31.97
2019-03-24T08:34:51.370Z,30.81
2019-03-24T08:37:19.870Z,30.24
2019-03-24T08:39:48.455Z,29.39
2019-03-24T08:42:16.925Z,28.52
2019-03-24T08:44:45.420Z,28.37
2019-03-24T08:47:13.923Z,26.84
2019-03-24T08:49:42.455Z,26.21
2019-03-24T08:52:10.963Z,25.69
2019-03-24T08:54:39.439Z,25.22
2019-03-24T08:57:07.977Z,24.19
2019-03-24T08:59:36.438Z,24.33
2019-03-24T09:02:05.023Z,23.40
2019-03-24T09:04:33.547Z,23.60
2019-03-24T09:07:02.020Z,21.94
2019-03-24T09:09:30.465Z,21.84
2019-03-24T09:11:58.922Z,20.81
2019-03-24T09:14:27.481Z,20.95
2019-03-24T09:16:55.949Z,20.93
2019-03-24T09:19:24.395Z,20.53
2019-03-24T09:21:52.863Z,20.17
2019-03-24T09:24:21.413Z,19.83
2019-03-24T09:26:49.827Z,19.44
2019-03-24T09:29:18.303Z,18.80
2019-03-24T09:31:46.825Z,19.50
2019-03-24T09:34:15.314Z,18.84
2019-03-24T09:36:43.797Z,18.06
2019-03-24T09:39:12.230Z,18.05
2019-03-24T09:41:40.802Z,17.69
2019-03-24T09:44:09.227Z,17.89
2019-03-24T09:46:37.664Z,17.49
2019-03-24T09:49:06.207Z,18.29
2019-03-24T09:51:34.637Z,18.38
2019-03-24T09:54:03.169Z,17.02
2019-03-24T09:56:31.668Z,17.02
2019-03-24T09:59:00.143Z,17.34
2019-03-24T10:01:28.571Z,16.63
2019-03-24T10:03:57.294Z,16.74
2019-03-24T10:06:25.746Z,16.41
2019-03-24T10:08:54.250Z,17.61
2019-03-24T10:11:22.703Z,16.47
2019-03-24T10:13:51.150Z,18.30
2019-03-24T10:16:19.601Z,17.58
2019-03-24T10:18:48.054Z,17.70
2019-03-24T10:21:16.498Z,17.40
2019-03-24T10:23:44.960Z,16.85
2019-03-24T10:26:13.402Z,15.82
2019-03-24T10:28:41.882Z,16.76
2019-03-24T10:31:10.319Z,16.85
2019-03-24T10:33:38.796Z,17.21
2019-03-24T10:36:07.220Z,17.04
2019-03-24T10:38:35.647Z,17.56
2019-03-24T10:41:04.261Z,17.50
2019-03-24T10:43:32.687Z,17.46
2019-03-24T10:46:02.404Z,17.42
2019-03-24T10:48:33.822Z,17.69
2019-03-24T10:51:01.062Z,17.60
2019-03-24T10:53:29.499Z,17.74
2019-03-24T10:55:58.077Z,17.20
2019-03-24T10:58:26.602Z,17.00
2019-03-24T11:00:55.034Z,18.59
2019-03-24T11:03:23.611Z,19.17
2019-03-24T11:05:52.111Z,19.31
2019-03-24T11:08:20.638Z,20.17
2019-03-24T11:10:49.116Z,18.98
2019-03-24T11:13:17.557Z,17.78
2019-03-24T11:15:46.068Z,19.48
2019-03-24T11:18:14.638Z,21.09
2019-03-24T11:20:43.142Z,19.97
2019-03-24T11:23:12.394Z,20.66
2019-03-24T11:25:40.889Z,24.17
2019-03-24T11:28:09.337Z,24.39
2019-03-24T11:30:37.821Z,24.84
2019-03-24T11:33:06.398Z,25.23
2019-03-24T11:35:34.846Z,24.94
2019-03-24T11:38:03.380Z,25.10
2019-03-24T11:40:31.901Z,24.97
2019-03-24T11:43:00.341Z,25.51
2019-03-24T11:45:28.895Z,25.70
2019-03-24T11:47:57.323Z,25.72
2019-03-24T11:50:25.783Z,24.90
2019-03-24T11:52:54.293Z,25.96
2019-03-24T11:55:22.774Z,26.43
2019-03-24T11:57:51.592Z,27.03
2019-03-24T12:00:23.240Z,27.69
2019-03-24T12:02:51.820Z,27.70
2019-03-24T12:05:20.316Z,27.08
2019-03-24T12:07:48.768Z,26.58
2019-03-24T12:10:17.386Z,27.69
2019-03-24T12:12:45.888Z,28.34
2019-03-24T12:15:14.485Z,28.56
2019-03-24T12:17:42.986Z,28.64
2019-03-24T12:20:11.865Z,28.87
2019-03-24T12:22:40.350Z,27.96
2019-03-24T12:25:08.915Z,29.88
2019-03-24T12:27:37.515Z,28.91
2019-03-24T12:30:08.683Z,28.99
2019-03-24T12:32:37.285Z,29.50
2019-03-24T12:35:07.588Z,29.21
2019-03-24T12:37:36.159Z,29.55
2019-03-24T12:40:07.262Z,29.85
2019-03-24T12:42:35.709Z,31.13
2019-03-24T12:45:08.272Z,31.86
2019-03-24T12:47:36.813Z,30.65
2019-03-24T12:50:09.495Z,30.51
2019-03-24T12:52:38.339Z,30.73
2019-03-24T12:55:07.406Z,31.06
2019-03-24T12:57:35.839Z,30.40
2019-03-24T13:00:06.947Z,31.50
2019-03-24T13:02:35.438Z,31.92
2019-03-24T13:05:05.816Z,31.87
2019-03-24T13:07:34.359Z,30.97
2019-03-24T13:10:03.167Z,30.39
2019-03-24T13:12:31.695Z,30.50
2019-03-24T13:15:00.422Z,29.86
2019-03-24T13:17:28.992Z,29.55
2019-03-24T13:19:57.915Z,28.82
2019-03-24T13:22:26.372Z,27.22
2019-03-24T13:24:54.839Z,27.74
2019-03-24T13:27:23.310Z,27.34
2019-03-24T13:29:51.703Z,25.98
2019-03-24T13:32:20.247Z,24.56
2019-03-24T13:34:48.683Z,26.29
2019-03-24T13:37:17.225Z,24.71
2019-03-24T13:39:45.669Z,26.63
2019-03-24T13:42:14.241Z,26.11
2019-03-24T13:44:42.837Z,26.42
2019-03-24T13:47:11.298Z,26.99
2019-03-24T13:49:39.820Z,29.54
2019-03-24T13:52:08.420Z,28.17
2019-03-24T13:54:37.008Z,29.66
2019-03-24T13:57:05.584Z,29.32
2019-03-24T13:59:34.217Z,30.04
2019-03-24T14:02:02.798Z,30.61
2019-03-24T14:04:31.305Z,31.02
2019-03-24T14:06:59.887Z,29.64
2019-03-24T14:09:28.316Z,28.77
2019-03-24T14:11:56.868Z,29.30
2019-03-24T14:14:25.303Z,29.69
2019-03-24T14:16:53.837Z,27.80
2019-03-24T14:19:22.550Z,28.81
2019-03-24T14:21:51.002Z,26.60
2019-03-24T14:24:19.518Z,27.59
2019-03-24T14:26:48.072Z,29.73
2019-03-24T14:29:16.526Z,30.52
2019-03-24T14:31:44.991Z,31.36
2019-03-24T14:34:13.459Z,32.64
2019-03-24T14:36:41.882Z,32.62
2019-03-24T14:39:10.499Z,32.18
2019-03-24T14:41:39.028Z,31.88
2019-03-24T14:44:07.434Z,32.84
2019-03-24T14:46:35.887Z,32.58
2019-03-24T14:49:04.469Z,32.63
2019-03-24T14:51:32.994Z,34.12
2019-03-24T14:54:01.500Z,32.55
2019-03-24T14:56:30.027Z,33.04
2019-03-24T14:58:58.527Z,33.37
2019-03-24T15:01:26.998Z,34.34
2019-03-24T15:03:55.552Z,34.18
2019-03-24T15:06:24.142Z,35.37
2019-03-24T15:08:52.596Z,35.87
2019-03-24T15:11:21.127Z,36.71
2019-03-24T15:13:49.587Z,36.71
2019-03-24T15:16:18.023Z,37.12
2019-03-24T15:18:46.494Z,36.92
2019-03-24T15:21:15.971Z,35.55
2019-03-24T15:23:44.518Z,36.73
2019-03-24T15:26:12.995Z,36.55
2019-03-24T15:28:41.426Z,34.94
2019-03-24T15:31:09.942Z,34.28
2019-03-24T15:33:38.523Z,34.08
2019-03-24T15:36:07.305Z,34.91
2019-03-24T15:38:35.832Z,34.67
2019-03-24T15:41:04.506Z,34.33
2019-03-24T15:43:32.991Z,34.89
2019-03-24T15:46:01.508Z,35.51
2019-03-24T15:48:30.005Z,35.45
2019-03-24T15:50:58.469Z,35.83
2019-03-24T15:53:26.897Z,36.20
2019-03-24T15:55:55.403Z,36.03
2019-03-24T15:58:23.868Z,36.93
2019-03-24T16:00:52.441Z,37.36
2019-03-24T16:03:20.950Z,37.65
2019-03-24T16:05:49.570Z,38.12
2019-03-24T16:08:18.180Z,38.38
2019-03-24T16:10:46.680Z,37.33
2019-03-24T16:13:15.154Z,36.30
2019-03-24T16:15:45.602Z,37.19
2019-03-24T16:18:14.328Z,37.11
2019-03-24T16:20:42.825Z,37.15
2019-03-24T16:23:11.334Z,36.50
2019-03-24T16:25:39.869Z,36.20
2019-03-24T16:28:08.438Z,37.47
2019-03-24T16:30:36.998Z,38.23
2019-03-24T16:33:05.954Z,39.09
2019-03-24T16:35:34.407Z,41.35
2019-03-24T16:38:02.938Z,42.35
2019-03-24T16:40:31.449Z,43.67
2019-03-24T16:42:59.915Z,45.97
2019-03-24T16:45:30.031Z,47.00
2019-03-24T16:47:58.535Z,47.16
2019-03-24T16:50:27.178Z,47.83
2019-03-24T16:52:55.688Z,47.76
2019-03-24T16:55:24.202Z,47.92
2019-03-24T16:57:53.211Z,47.96
2019-03-24T17:00:22.004Z,48.06
2019-03-24T17:02:50.507Z,49.26
2019-03-24T17:05:19.126Z,48.21
2019-03-24T17:07:47.728Z,47.59
2019-03-24T17:10:16.331Z,47.73
2019-03-24T17:12:44.931Z,47.53
2019-03-24T17:15:14.001Z,47.94
2019-03-24T17:17:42.512Z,47.08
2019-03-24T17:20:11.137Z,47.11
2019-03-24T17:22:39.564Z,47.03
2019-03-24T17:25:08.837Z,47.52
2019-03-24T17:27:37.371Z,47.00
2019-03-24T17:30:08.897Z,47.28
2019-03-24T17:32:37.447Z,47.38
2019-03-24T17:35:07.447Z,48.05
2019-03-24T17:37:35.940Z,48.13
2019-03-24T17:40:09.490Z,48.56
2019-03-24T17:42:38.081Z,48.88
2019-03-24T17:45:08.573Z,49.25
2019-03-24T17:47:37.116Z,49.33
2019-03-24T17:50:11.908Z,49.65
2019-03-24T17:52:39.745Z,49.84
2019-03-24T17:55:08.468Z,49.99
2019-03-24T17:57:37.035Z,51.08
2019-03-24T18:00:08.602Z,51.12
2019-03-24T18:02:37.247Z,50.90
2019-03-24T18:05:07.839Z,50.71
2019-03-24T18:07:36.289Z,51.30
2019-03-24T18:10:05.629Z,51.53
2019-03-24T18:12:34.160Z,52.11
2019-03-24T18:15:02.708Z,52.74
2019-03-24T18:17:31.270Z,52.56
2019-03-24T18:20:00.345Z,53.33
2019-03-24T18:22:28.881Z,53.96
2019-03-24T18:24:57.338Z,53.98
2019-03-24T18:27:25.957Z,54.36
2019-03-24T18:29:54.403Z,54.34
2019-03-24T18:32:23.289Z,54.54
2019-03-24T18:34:51.880Z,55.11
2019-03-24T18:37:20.520Z,55.47
2019-03-24T18:39:49.015Z,55.89
2019-03-24T18:42:17.521Z,56.19
2019-03-24T18:44:46.094Z,56.47
2019-03-24T18:47:14.623Z,57.01
2019-03-24T18:49:43.198Z,57.72
2019-03-24T18:52:22.060Z,58.04
2019-03-24T18:54:42.271Z,58.07
2019-03-24T18:57:10.782Z,58.34
2019-03-24T18:59:39.585Z,58.72
2019-03-24T19:02:08.052Z,59.10
2019-03-24T19:04:36.484Z,59.60
2019-03-24T19:07:05.091Z,59.74
2019-03-24T19:09:33.536Z,60.02
2019-03-24T19:12:02.012Z,60.09
2019-03-24T19:14:30.429Z,59.94
2019-03-24T19:16:58.996Z,60.43
2019-03-24T19:19:27.539Z,60.40
2019-03-24T19:21:56.129Z,60.07
2019-03-24T19:24:24.638Z,61.08
2019-03-24T19:26:53.058Z,61.21
2019-03-24T19:29:21.508Z,60.71
2019-03-24T19:31:49.963Z,61.08
2019-03-24T19:34:18.391Z,61.61
2019-03-24T19:36:47.833Z,61.13
2019-03-24T19:39:16.337Z,60.70
2019-03-24T19:41:44.923Z,61.27
2019-03-24T19:44:13.471Z,61.16
2019-03-24T19:46:41.924Z,61.49
2019-03-24T19:49:10.414Z,61.33
2019-03-24T19:51:39.002Z,61.66
2019-03-24T19:54:07.449Z,62.21
2019-03-24T19:56:35.962Z,62.58
2019-03-24T19:59:04.484Z,62.45
2019-03-24T20:01:32.964Z,61.15
2019-03-24T20:04:01.411Z,61.86
2019-03-24T20:06:29.847Z,61.32
2019-03-24T20:08:58.327Z,62.22
2019-03-24T20:11:27.071Z,62.49
2019-03-24T20:13:55.565Z,62.99
2019-03-24T20:16:24.065Z,62.41
2019-03-24T20:18:52.823Z,62.30
2019-03-24T20:21:21.254Z,62.64
2019-03-24T20:23:49.766Z,62.52
2019-03-24T20:26:18.300Z,62.82
2019-03-24T20:28:46.800Z,63.72
2019-03-24T20:31:15.382Z,63.46
2019-03-24T20:33:44.073Z,64.46
2019-03-24T20:36:12.494Z,64.12
2019-03-24T20:38:41.018Z,64.27
2019-03-24T20:41:09.531Z,64.64
2019-03-24T20:43:37.955Z,65.00
2019-03-24T20:46:06.454Z,65.59
2019-03-24T20:48:34.995Z,65.15
2019-03-24T20:51:03.513Z,65.20
2019-03-24T20:53:32.022Z,65.10
2019-03-24T20:56:00.526Z,65.01
2019-03-24T20:58:29.038Z,66.14
2019-03-24T21:00:57.552Z,65.81
2019-03-24T21:03:26.287Z,65.63
2019-03-24T21:05:56.420Z,65.80
2019-03-24T21:08:24.925Z,66.66
2019-03-24T21:10:53.497Z,67.32
2019-03-24T21:13:21.944Z,67.64
2019-03-24T21:15:51.930Z,68.01
2019-03-24T21:18:20.474Z,67.96
2019-03-24T21:20:49.142Z,67.55
2019-03-24T21:23:28.857Z,67.76
2019-03-24T21:25:47.829Z,68.14
2019-03-24T21:28:19.213Z,67.98
2019-03-24T21:30:47.740Z,70.44
2019-03-24T21:33:16.165Z,69.49
2019-03-24T21:35:44.711Z,71.04
2019-03-24T21:38:13.266Z,69.84
2019-03-24T21:40:41.771Z,70.13
2019-03-24T21:43:10.244Z,72.19
2019-03-24T21:45:38.801Z,71.44
2019-03-24T21:48:07.474Z,70.96
2019-03-24T21:50:35.890Z,72.57
2019-03-24T21:53:04.575Z,73.27
2019-03-24T21:55:33.066Z,74.59
2019-03-24T21:58:01.760Z,75.27
2019-03-24T22:00:34.785Z,75.44
2019-03-24T22:03:03.379Z,76.58
2019-03-24T22:05:31.814Z,77.07
2019-03-24T22:08:00.330Z,77.56
2019-03-24T22:10:28.856Z,78.14
2019-03-24T22:12:57.394Z,77.46
2019-03-24T22:15:25.889Z,75.83
2019-03-24T22:17:54.371Z,74.56
2019-03-24T22:20:22.868Z,74.98
2019-03-24T22:22:54.219Z,74.68
2019-03-24T22:25:22.681Z,74.01
2019-03-24T22:27:51.107Z,74.51
2019-03-24T22:30:19.911Z,74.04
2019-03-24T22:32:48.368Z,73.85
2019-03-24T22:35:16.975Z,73.96
2019-03-24T22:37:45.480Z,75.17
2019-03-24T22:40:14.185Z,75.11
2019-03-24T22:42:42.692Z,75.14
2019-03-24T22:45:11.577Z,75.78
2019-03-24T22:47:40.029Z,75.11
2019-03-24T22:50:09.095Z,75.37
2019-03-24T22:52:38.002Z,75.90
2019-03-24T22:55:08.527Z,75.43
2019-03-24T22:57:36.977Z,75.27
2019-03-24T23:00:12.147Z,74.70
2019-03-24T23:02:40.717Z,75.30
2019-03-24T23:05:09.304Z,75.28
2019-03-24T23:07:37.904Z,75.39
2019-03-24T23:10:06.411Z,75.49
2019-03-24T23:12:35.139Z,75.58
2019-03-24T23:15:05.039Z,75.49
2019-03-24T23:17:33.481Z,75.92
2019-03-24T23:20:01.960Z,76.41
2019-03-24T23:22:30.456Z,75.81
2019-03-24T23:24:58.946Z,76.13
2019-03-24T23:27:27.416Z,75.97
2019-03-24T23:29:55.837Z,75.95
2019-03-24T23:32:24.301Z,75.74
2019-03-24T23:34:52.741Z,75.80
2019-03-24T23:37:21.165Z,75.92
2019-03-24T23:39:49.634Z,75.56
2019-03-24T23:42:18.126Z,75.14
2019-03-24T23:44:46.574Z,75.37
2019-03-24T23:47:14.989Z,75.94
2019-03-24T23:49:43.482Z,75.89
2019-03-24T23:52:11.931Z,75.80
2019-03-24T23:54:40.347Z,75.89
2019-03-24T23:57:08.765Z,75.96
2019-03-24T23:59:37.220Z,75.27
